createdAt,value
2022-12-03T00:00:43.523Z,24.08
2022-12-03T00:03:12.170Z,24.65
2022-12-03T00:05:48.308Z,25.02
2022-12-03T00:08:17.444Z,21.33
2022-12-03T00:10:46.142Z,24.13
2022-12-03T00:13:14.503Z,22.52
2022-12-03T00:15:42.934Z,24.05
2022-12-03T00:18:11.355Z,21.55
2022-12-03T00:20:39.772Z,21.38
2022-12-03T00:23:09.169Z,23.38
2022-12-03T00:25:37.577Z,20.35
2022-12-03T00:28:05.957Z,20.77
2022-12-03T00:30:34.357Z,20.92
2022-12-03T00:33:02.880Z,21.92
2022-12-03T00:35:31.285Z,25.63
2022-12-03T00:37:59.687Z,20.23
2022-12-03T00:40:28.311Z,22.25
2022-12-03T00:42:56.841Z,18.42
2022-12-03T00:45:25.162Z,23.10
2022-12-03T00:47:53.749Z,21.48
2022-12-03T00:50:22.147Z,22.52
2022-12-03T00:52:51.658Z,20.25
2022-12-03T00:55:20.056Z,20.85
2022-12-03T00:57:48.569Z,20.20
2022-12-03T01:00:17.691Z,21.98
2022-12-03T01:02:46.069Z,20.23
2022-12-03T01:05:14.489Z,27.55
2022-12-03T01:07:43.040Z,26.77
2022-12-03T01:10:12.623Z,19.98
2022-12-03T01:12:41.166Z,22.33
2022-12-03T01:15:10.616Z,27.75
2022-12-03T01:17:39.175Z,21.98
2022-12-03T01:20:09.382Z,25.40
2022-12-03T01:22:37.854Z,25.27
2022-12-03T01:25:06.784Z,27.10
2022-12-03T01:27:35.296Z,22.42
2022-12-03T01:30:05.096Z,24.67
2022-12-03T01:32:33.524Z,24.83
2022-12-03T01:35:02.039Z,23.00
2022-12-03T01:37:30.600Z,25.70
2022-12-03T01:39:59.054Z,30.73
2022-12-03T01:42:31.534Z,24.58
2022-12-03T01:45:01.386Z,24.17
2022-12-03T01:47:35.212Z,26.98
2022-12-03T01:50:08.437Z,24.48
2022-12-03T01:52:39.182Z,24.15
2022-12-03T01:55:13.672Z,22.83
2022-12-03T01:57:47.407Z,25.25
2022-12-03T02:00:18.536Z,27.33
2022-12-03T02:02:49.884Z,23.90
2022-12-03T02:05:22.335Z,26.52
2022-12-03T02:07:50.859Z,24.13
2022-12-03T02:10:25.381Z,24.55
2022-12-03T02:13:01.487Z,26.98
2022-12-03T02:15:30.052Z,27.10
2022-12-03T02:17:59.695Z,25.67
2022-12-03T02:20:28.207Z,23.92
2022-12-03T02:23:10.697Z,29.77
2022-12-03T02:25:39.500Z,28.02
2022-12-03T02:28:09.655Z,26.25
2022-12-03T02:30:38.247Z,28.48
2022-12-03T02:33:06.817Z,27.73
2022-12-03T02:35:37.340Z,25.73
2022-12-03T02:38:08.497Z,25.33
2022-12-03T02:40:37.370Z,27.10
2022-12-03T02:43:06.096Z,28.70
2022-12-03T02:45:39.455Z,27.60
2022-12-03T02:48:25.515Z,27.98
2022-12-03T02:50:57.325Z,28.88
2022-12-03T02:53:36.277Z,31.70
2022-12-03T02:56:06.144Z,27.52
2022-12-03T02:58:35.196Z,27.73
2022-12-03T03:01:05.084Z,24.65
2022-12-03T03:03:34.539Z,28.85
2022-12-03T03:06:06.123Z,28.00
2022-12-03T03:08:35.434Z,31.90
2022-12-03T03:11:04.338Z,25.85
2022-12-03T03:13:33.924Z,26.23
2022-12-03T03:16:04.452Z,26.38
2022-12-03T03:18:34.305Z,30.65
2022-12-03T03:21:04.086Z,26.75
2022-12-03T03:23:32.571Z,27.25
2022-12-03T03:26:06.057Z,28.88
2022-12-03T03:28:37.855Z,28.88
2022-12-03T03:31:08.340Z,31.10
2022-12-03T03:33:39.229Z,28.10
2022-12-03T03:36:08.599Z,31.13
2022-12-03T03:38:38.473Z,28.83
2022-12-03T03:41:09.210Z,27.13
2022-12-03T03:43:39.303Z,25.50
2022-12-03T03:46:08.259Z,25.95
2022-12-03T03:48:37.017Z,26.60
2022-12-03T03:51:09.324Z,28.80
2022-12-03T03:53:44.848Z,28.08
2022-12-03T03:56:15.591Z,30.27
2022-12-03T03:58:44.006Z,31.60
2022-12-03T04:01:14.081Z,31.73
2022-12-03T04:03:42.636Z,28.58
2022-12-03T04:06:11.315Z,27.48
2022-12-03T04:08:39.717Z,26.48
2022-12-03T04:11:26.868Z,31.73
2022-12-03T04:13:55.333Z,28.48
2022-12-03T04:16:23.819Z,30.60
2022-12-03T04:18:52.321Z,27.05
2022-12-03T04:21:41.878Z,32.80
2022-12-03T04:24:11.260Z,30.88
2022-12-03T04:26:58.291Z,29.20
2022-12-03T04:29:26.796Z,32.33
2022-12-03T04:32:13.860Z,26.27
2022-12-03T04:35:00.605Z,30.38
2022-12-03T04:37:29.060Z,29.27
2022-12-03T04:39:57.498Z,29.45
2022-12-03T04:42:26.017Z,27.30
2022-12-03T04:44:54.593Z,30.20
2022-12-03T04:47:23.246Z,30.00
2022-12-03T04:49:51.884Z,31.90
2022-12-03T04:52:20.877Z,31.38
2022-12-03T04:54:49.312Z,30.42
2022-12-03T04:57:17.737Z,29.30
2022-12-03T04:59:46.258Z,30.33
2022-12-03T05:02:14.737Z,28.33
2022-12-03T05:04:44.139Z,31.65
2022-12-03T05:07:12.494Z,27.08
2022-12-03T05:09:40.910Z,32.05
2022-12-03T05:12:09.358Z,33.30
2022-12-03T05:14:37.778Z,30.05
2022-12-03T05:17:06.345Z,35.42
2022-12-03T05:19:53.448Z,31.73
2022-12-03T05:22:21.838Z,31.17
2022-12-03T05:24:50.283Z,30.45
2022-12-03T05:27:23.405Z,33.35
2022-12-03T05:29:53.195Z,29.55
2022-12-03T05:32:21.782Z,30.67
2022-12-03T05:34:50.164Z,31.30
2022-12-03T05:37:18.545Z,29.90
2022-12-03T05:39:46.874Z,31.88
2022-12-03T05:42:34.049Z,32.50
2022-12-03T05:45:03.791Z,28.88
2022-12-03T05:47:33.192Z,29.02
2022-12-03T05:50:01.879Z,38.42
2022-12-03T05:52:30.295Z,33.28
2022-12-03T05:54:58.707Z,35.65
2022-12-03T05:57:27.116Z,32.17
2022-12-03T05:59:55.537Z,34.42
2022-12-03T06:02:24.070Z,35.03
2022-12-03T06:04:52.975Z,33.67
2022-12-03T06:07:21.520Z,32.10
2022-12-03T06:09:50.060Z,34.50
2022-12-03T06:12:18.410Z,32.45
2022-12-03T06:14:46.780Z,37.90
2022-12-03T06:17:15.253Z,33.85
2022-12-03T06:19:43.656Z,31.83
2022-12-03T06:22:12.368Z,32.95
2022-12-03T06:24:40.782Z,31.63
2022-12-03T06:27:09.407Z,31.20
2022-12-03T06:29:38.309Z,30.67
2022-12-03T06:32:07.993Z,29.08
2022-12-03T06:34:36.571Z,27.23
2022-12-03T06:37:04.969Z,33.72
2022-12-03T06:39:33.462Z,30.85
2022-12-03T06:42:02.021Z,36.10
2022-12-03T06:44:30.350Z,30.85
2022-12-03T06:46:58.879Z,33.75
2022-12-03T06:49:27.315Z,34.55
2022-12-03T06:51:56.071Z,33.10
2022-12-03T06:54:24.575Z,31.77
2022-12-03T06:56:53.104Z,35.42
2022-12-03T06:59:21.480Z,34.67
2022-12-03T07:01:49.879Z,30.45
2022-12-03T07:04:18.364Z,31.65
2022-12-03T07:06:46.774Z,28.40
2022-12-03T07:09:16.980Z,36.05
2022-12-03T07:11:46.466Z,32.90
2022-12-03T07:14:14.967Z,32.85
2022-12-03T07:16:43.772Z,32.83
2022-12-03T07:19:13.796Z,35.97
2022-12-03T07:21:42.212Z,32.28
2022-12-03T07:24:10.743Z,31.17
2022-12-03T07:26:39.178Z,32.90
2022-12-03T07:29:07.550Z,31.80
2022-12-03T07:31:36.443Z,32.20
2022-12-03T07:34:04.854Z,30.55
2022-12-03T07:36:33.266Z,29.05
2022-12-03T07:39:01.832Z,29.75
2022-12-03T07:41:31.009Z,32.65
2022-12-03T07:43:59.439Z,28.33
2022-12-03T07:46:28.249Z,30.65
2022-12-03T07:48:56.623Z,35.47
2022-12-03T07:51:30.468Z,29.48
2022-12-03T07:54:00.445Z,31.33
2022-12-03T07:56:28.996Z,33.75
2022-12-03T07:58:58.185Z,32.35
2022-12-03T08:01:26.774Z,33.15
2022-12-03T08:03:55.360Z,31.02
2022-12-03T08:06:23.723Z,36.15
2022-12-03T08:08:52.194Z,35.55
2022-12-03T08:11:20.719Z,30.30
2022-12-03T08:13:49.252Z,33.03
2022-12-03T08:16:20.772Z,30.60
2022-12-03T08:18:50.974Z,32.58
2022-12-03T08:21:21.179Z,26.60
2022-12-03T08:23:49.571Z,27.17
2022-12-03T08:26:25.558Z,34.42
2022-12-03T08:28:54.672Z,31.20
2022-12-03T08:31:32.507Z,31.27
2022-12-03T08:34:26.341Z,34.55
2022-12-03T08:37:13.885Z,30.25
2022-12-03T08:39:50.709Z,30.65
2022-12-03T08:42:41.822Z,31.17
2022-12-03T08:45:35.254Z,25.88
2022-12-03T08:48:18.650Z,29.00
2022-12-03T08:50:47.095Z,24.50
2022-12-03T08:53:30.448Z,27.08
2022-12-03T08:56:01.427Z,26.92
2022-12-03T08:58:46.246Z,28.38
2022-12-03T09:01:14.900Z,29.45
2022-12-03T09:03:52.151Z,28.45
2022-12-03T09:06:21.863Z,28.85
2022-12-03T09:08:50.235Z,24.77
2022-12-03T09:11:18.814Z,28.83
2022-12-03T09:13:47.226Z,23.65
2022-12-03T09:16:15.743Z,23.95
2022-12-03T09:18:45.291Z,25.98
2022-12-03T09:21:13.682Z,25.60
2022-12-03T09:23:42.157Z,24.45
2022-12-03T09:26:10.622Z,24.25
2022-12-03T09:28:40.119Z,27.05
2022-12-03T09:31:08.604Z,23.73
2022-12-03T09:33:37.118Z,27.48
2022-12-03T09:36:06.721Z,23.65
2022-12-03T09:38:36.238Z,26.15
2022-12-03T09:41:04.972Z,25.83
2022-12-03T09:44:02.661Z,28.17
2022-12-03T09:46:22.892Z,25.23
2022-12-03T09:48:51.278Z,27.80
2022-12-03T09:51:21.025Z,26.75
2022-12-03T09:53:49.433Z,26.10
2022-12-03T09:56:22.170Z,31.00
2022-12-03T09:58:50.693Z,28.58
2022-12-03T10:01:19.200Z,30.70
2022-12-03T10:03:50.052Z,27.17
2022-12-03T10:06:21.579Z,28.88
2022-12-03T10:08:53.464Z,25.65
2022-12-03T10:11:24.984Z,26.38
2022-12-03T10:13:56.239Z,22.67
2022-12-03T10:16:25.808Z,27.23
2022-12-03T10:18:57.018Z,23.90
2022-12-03T10:21:34.600Z,26.48
2022-12-03T10:24:20.998Z,28.70
2022-12-03T10:26:52.982Z,25.15
2022-12-03T10:29:34.560Z,31.75
2022-12-03T10:32:09.973Z,25.80
2022-12-03T10:34:41.028Z,28.15
2022-12-03T10:37:17.189Z,25.20
2022-12-03T10:40:00.743Z,23.65
2022-12-03T10:42:32.410Z,25.00
2022-12-03T10:45:24.850Z,24.58
2022-12-03T10:48:05.934Z,24.23
2022-12-03T10:50:35.796Z,25.10
2022-12-03T10:53:04.867Z,22.98
2022-12-03T10:55:41.143Z,23.08
2022-12-03T10:58:31.384Z,24.27
2022-12-03T11:01:03.411Z,27.17
2022-12-03T11:03:36.280Z,26.58
2022-12-03T11:06:05.149Z,24.92
2022-12-03T11:08:36.320Z,24.52
2022-12-03T11:11:17.031Z,24.33
2022-12-03T11:13:53.075Z,25.38
2022-12-03T11:16:39.920Z,26.00
2022-12-03T11:19:36.488Z,25.48
2022-12-03T11:22:04.880Z,26.00
2022-12-03T11:24:35.899Z,29.80
2022-12-03T11:27:04.283Z,23.45
2022-12-03T11:29:46.629Z,25.33
2022-12-03T11:35:02.561Z,25.88
2022-12-03T11:37:31.240Z,30.10
2022-12-03T11:40:39.090Z,32.50
2022-12-03T11:43:09.923Z,26.48
2022-12-03T11:45:38.776Z,28.17
2022-12-03T11:48:13.784Z,24.13
2022-12-03T11:50:45.188Z,28.52
2022-12-03T11:53:16.113Z,30.13
2022-12-03T11:55:51.914Z,33.92
2022-12-03T11:58:30.176Z,27.67
2022-12-03T12:01:00.399Z,25.55
2022-12-03T12:03:42.043Z,29.35
2022-12-03T12:06:17.068Z,26.13
2022-12-03T12:08:51.715Z,28.23
2022-12-03T12:11:30.382Z,33.03
2022-12-03T12:13:59.914Z,29.20
2022-12-03T12:16:53.686Z,31.25
2022-12-03T12:19:40.077Z,30.50
2022-12-03T12:22:17.626Z,30.15
2022-12-03T12:24:51.452Z,28.35
2022-12-03T12:27:39.273Z,29.33
2022-12-03T12:30:17.482Z,30.15
2022-12-03T12:33:04.143Z,35.50
2022-12-03T12:35:33.065Z,30.77
2022-12-03T12:38:20.065Z,28.23
2022-12-03T12:40:53.173Z,27.10
2022-12-03T12:43:27.695Z,25.95
2022-12-03T12:46:46.541Z,30.20
2022-12-03T12:49:26.370Z,24.38
2022-12-03T12:51:58.785Z,30.08
2022-12-03T12:54:35.255Z,28.70
2022-12-03T12:57:19.815Z,27.98
2022-12-03T12:59:52.486Z,32.22
2022-12-03T13:03:04.692Z,30.67
2022-12-03T13:05:45.391Z,28.17
2022-12-03T13:08:39.657Z,28.60
2022-12-03T13:11:51.862Z,32.58
2022-12-03T13:14:26.174Z,34.38
2022-12-03T13:17:00.008Z,32.05
2022-12-03T13:19:39.640Z,31.27
2022-12-03T13:22:23.251Z,32.85
2022-12-03T13:24:59.631Z,37.53
2022-12-03T13:27:30.178Z,31.02
2022-12-03T13:30:10.257Z,30.98
2022-12-03T13:32:44.362Z,35.05
2022-12-03T13:35:28.245Z,31.42
2022-12-03T13:37:59.296Z,30.73
2022-12-03T13:40:36.495Z,38.15
2022-12-03T13:43:19.114Z,33.60
2022-12-03T13:45:55.257Z,37.03
2022-12-03T13:48:42.852Z,42.03
2022-12-03T13:51:33.401Z,34.75
2022-12-03T13:54:14.383Z,38.53
2022-12-03T13:56:57.405Z,33.85
2022-12-03T13:59:30.552Z,37.70
2022-12-03T14:02:05.991Z,38.70
2022-12-03T14:04:37.779Z,40.47
2022-12-03T14:07:14.247Z,35.97
2022-12-03T14:09:51.523Z,33.53
2022-12-03T14:12:34.030Z,37.53
2022-12-03T14:15:05.466Z,33.17
2022-12-03T14:17:34.529Z,31.15
2022-12-03T14:20:06.773Z,33.45
2022-12-03T14:25:15.999Z,38.45
2022-12-03T14:28:08.774Z,31.73
2022-12-03T14:30:39.808Z,34.78
2022-12-03T14:33:08.792Z,34.90
2022-12-03T14:35:37.913Z,31.83
2022-12-03T14:38:06.320Z,33.42
2022-12-03T14:40:34.777Z,37.88
2022-12-03T14:43:03.459Z,36.08
2022-12-03T14:45:32.906Z,33.38
2022-12-03T14:48:01.420Z,38.55
2022-12-03T14:50:30.235Z,36.95
2022-12-03T14:52:58.688Z,36.85
2022-12-03T14:55:27.233Z,29.88
2022-12-03T14:57:55.639Z,35.58
2022-12-03T15:00:24.261Z,32.00
2022-12-03T15:02:52.733Z,35.65
2022-12-03T15:05:27.989Z,31.23
2022-12-03T15:07:58.166Z,34.28
2022-12-03T15:10:26.586Z,33.08
2022-12-03T15:12:54.946Z,33.50
2022-12-03T15:15:24.408Z,35.10
2022-12-03T15:17:52.905Z,33.25
2022-12-03T15:20:21.366Z,40.13
2022-12-03T15:22:50.827Z,35.17
2022-12-03T15:25:25.409Z,32.72
2022-12-03T15:27:53.899Z,36.60
2022-12-03T15:30:22.381Z,33.60
2022-12-03T15:32:50.925Z,34.90
2022-12-03T15:35:20.320Z,34.03
2022-12-03T15:37:48.840Z,36.30
2022-12-03T15:40:17.386Z,35.75
2022-12-03T15:42:45.825Z,36.20
2022-12-03T15:45:15.523Z,32.38
2022-12-03T15:47:44.480Z,34.15
2022-12-03T15:50:14.175Z,34.70
2022-12-03T15:52:42.701Z,36.95
2022-12-03T15:55:11.562Z,34.78
2022-12-03T15:57:40.034Z,35.58
2022-12-03T16:00:10.834Z,36.00
2022-12-03T16:02:40.755Z,33.83
2022-12-03T16:05:11.808Z,42.30
2022-12-03T16:07:40.911Z,33.25
2022-12-03T16:10:10.823Z,37.30
2022-12-03T16:12:39.482Z,32.88
2022-12-03T16:15:08.327Z,37.28
2022-12-03T16:17:36.786Z,34.53
2022-12-03T16:20:06.713Z,35.90
2022-12-03T16:22:35.150Z,29.70
2022-12-03T16:25:05.114Z,37.67
2022-12-03T16:27:33.749Z,42.22
2022-12-03T16:30:02.353Z,38.35
2022-12-03T16:32:30.840Z,38.90
2022-12-03T16:34:59.291Z,32.22
2022-12-03T16:37:27.731Z,33.60
2022-12-03T16:39:56.504Z,32.70
2022-12-03T16:42:27.238Z,34.40
2022-12-03T16:45:22.810Z,40.50
2022-12-03T16:47:51.149Z,37.20
2022-12-03T16:50:25.881Z,32.72
2022-12-03T16:52:58.075Z,37.88
2022-12-03T16:55:26.448Z,36.95
2022-12-03T16:57:54.875Z,40.25
2022-12-03T17:00:23.435Z,34.10
2022-12-03T17:02:51.961Z,36.97
2022-12-03T17:05:20.455Z,40.15
2022-12-03T17:07:49.017Z,35.33
2022-12-03T17:10:17.546Z,35.10
2022-12-03T17:13:08.923Z,40.08
2022-12-03T17:15:34.824Z,36.35
2022-12-03T17:18:06.437Z,40.20
2022-12-03T17:20:35.831Z,44.83
2022-12-03T17:23:04.255Z,38.35
2022-12-03T17:25:34.154Z,38.38
2022-12-03T17:28:02.666Z,41.08
2022-12-03T17:30:31.051Z,39.20
2022-12-03T17:32:59.439Z,37.53
2022-12-03T17:35:28.554Z,41.28
2022-12-03T17:37:57.007Z,40.28
2022-12-03T17:40:25.376Z,41.13
2022-12-03T17:42:53.830Z,39.28
2022-12-03T17:45:22.234Z,42.60
2022-12-03T17:47:50.753Z,34.50
2022-12-03T17:50:19.562Z,34.97
2022-12-03T17:52:48.002Z,37.55
2022-12-03T17:55:26.478Z,37.75
2022-12-03T17:58:02.616Z,43.22
2022-12-03T18:00:31.494Z,48.45
2022-12-03T18:02:59.923Z,42.60
2022-12-03T18:05:28.368Z,39.65
2022-12-03T18:07:56.878Z,43.63
2022-12-03T18:10:25.514Z,45.58
2022-12-03T18:12:58.333Z,42.72
2022-12-03T18:15:31.092Z,45.70
2022-12-03T18:17:59.595Z,43.83
2022-12-03T18:20:28.241Z,42.88
2022-12-03T18:22:58.899Z,41.75
2022-12-03T18:25:28.272Z,44.83
2022-12-03T18:27:57.312Z,44.47
2022-12-03T18:30:25.710Z,46.40
2022-12-03T18:32:54.424Z,44.83
2022-12-03T18:35:22.987Z,43.92
2022-12-03T18:37:51.725Z,46.88
2022-12-03T18:40:23.357Z,41.50
2022-12-03T18:42:51.768Z,43.72
2022-12-03T18:45:20.544Z,40.83
2022-12-03T18:47:49.223Z,46.70
2022-12-03T18:50:17.692Z,55.40
2022-12-03T18:52:46.091Z,42.67
2022-12-03T18:55:19.164Z,47.72
2022-12-03T18:57:47.538Z,50.20
2022-12-03T19:00:17.553Z,43.33
2022-12-03T19:03:03.461Z,42.42
2022-12-03T19:05:34.409Z,40.28
2022-12-03T19:08:03.493Z,37.88
2022-12-03T19:10:32.935Z,40.65
2022-12-03T19:13:01.444Z,40.90
2022-12-03T19:15:30.834Z,43.38
2022-12-03T19:17:59.270Z,42.70
2022-12-03T19:20:28.779Z,41.10
2022-12-03T19:22:57.286Z,39.85
2022-12-03T19:25:25.813Z,43.15
2022-12-03T19:27:55.094Z,37.30
2022-12-03T19:30:23.692Z,41.80
2022-12-03T19:32:52.179Z,41.72
2022-12-03T19:35:24.978Z,75.28
2022-12-03T19:37:53.536Z,43.58
2022-12-03T19:40:22.020Z,41.60
2022-12-03T19:42:50.432Z,45.35
2022-12-03T19:45:18.866Z,48.92
2022-12-03T19:47:47.280Z,46.20
2022-12-03T19:50:22.623Z,43.00
2022-12-03T19:52:51.937Z,50.95
2022-12-03T19:55:20.579Z,46.47
2022-12-03T19:57:49.220Z,39.88
2022-12-03T20:00:17.995Z,37.05
2022-12-03T20:02:49.233Z,45.50
2022-12-03T20:05:17.820Z,46.07
2022-12-03T20:07:46.347Z,43.35
2022-12-03T20:10:14.850Z,54.60
2022-12-03T20:12:43.286Z,42.30
2022-12-03T20:15:13.401Z,48.88
2022-12-03T20:17:41.830Z,47.67
2022-12-03T20:20:10.722Z,47.88
2022-12-03T20:22:39.201Z,44.33
2022-12-03T20:25:08.009Z,66.13
2022-12-03T20:27:36.738Z,49.92
2022-12-03T20:30:05.880Z,46.63
2022-12-03T20:32:37.298Z,46.50
2022-12-03T20:35:09.717Z,48.80
2022-12-03T20:37:38.115Z,45.63
2022-12-03T20:40:07.205Z,53.47
2022-12-03T20:42:35.601Z,45.03
2022-12-03T20:45:04.388Z,44.05
2022-12-03T20:47:32.754Z,68.20
2022-12-03T20:50:01.202Z,50.53
2022-12-03T20:52:29.663Z,56.85
2022-12-03T20:54:58.107Z,45.00
2022-12-03T20:57:26.546Z,59.38
2022-12-03T20:59:56.008Z,53.53
2022-12-03T21:02:24.652Z,56.03
2022-12-03T21:04:53.601Z,48.42
2022-12-03T21:07:22.054Z,46.75
2022-12-03T21:09:50.776Z,45.03
2022-12-03T21:12:19.122Z,49.85
2022-12-03T21:14:47.570Z,48.00
2022-12-03T21:17:16.056Z,47.88
2022-12-03T21:19:46.817Z,50.58
2022-12-03T21:22:15.315Z,50.60
2022-12-03T21:24:44.816Z,55.58
2022-12-03T21:27:17.104Z,46.28
2022-12-03T21:29:49.888Z,48.40
2022-12-03T21:32:18.378Z,47.75
2022-12-03T21:34:46.790Z,47.22
2022-12-03T21:37:15.240Z,63.38
2022-12-03T21:39:43.659Z,54.55
2022-12-03T21:42:36.241Z,54.35
2022-12-03T21:45:00.441Z,48.67
2022-12-03T21:47:33.519Z,47.17
2022-12-03T21:50:07.346Z,40.75
2022-12-03T21:52:35.733Z,46.88
2022-12-03T21:55:04.402Z,51.35
2022-12-03T21:57:35.722Z,46.60
2022-12-03T22:00:08.638Z,47.50
2022-12-03T22:02:39.065Z,49.10
2022-12-03T22:05:09.090Z,47.83
2022-12-03T22:07:38.760Z,43.92
2022-12-03T22:10:09.822Z,46.63
2022-12-03T22:12:40.629Z,48.50
2022-12-03T22:15:16.593Z,46.42
2022-12-03T22:17:47.705Z,53.17
2022-12-03T22:20:16.326Z,46.63
2022-12-03T22:22:44.736Z,50.58
2022-12-03T22:25:13.158Z,49.80
2022-12-03T22:27:41.555Z,45.92
2022-12-03T22:30:10.148Z,43.72
2022-12-03T22:32:38.643Z,49.80
2022-12-03T22:35:07.422Z,51.38
2022-12-03T22:37:35.972Z,45.97
2022-12-03T22:40:05.068Z,50.83
2022-12-03T22:42:33.529Z,51.10
2022-12-03T22:45:01.946Z,46.00
2022-12-03T22:47:31.342Z,49.92
2022-12-03T22:49:59.709Z,49.58
2022-12-03T22:52:28.119Z,45.97
2022-12-03T22:54:56.536Z,47.85
2022-12-03T22:57:24.917Z,50.17
2022-12-03T22:59:53.692Z,51.45
2022-12-03T23:02:22.332Z,49.03
2022-12-03T23:04:50.788Z,53.55
2022-12-03T23:07:19.188Z,46.28
2022-12-03T23:09:48.714Z,52.67
2022-12-03T23:12:17.136Z,51.95
2022-12-03T23:14:45.547Z,51.10
2022-12-03T23:17:13.910Z,52.63
2022-12-03T23:19:42.413Z,46.38
2022-12-03T23:22:10.759Z,48.00
2022-12-03T23:24:40.263Z,48.38
2022-12-03T23:27:08.670Z,61.75
2022-12-03T23:29:37.019Z,44.53
2022-12-03T23:32:05.423Z,46.22
2022-12-03T23:34:33.987Z,44.17
2022-12-03T23:37:02.503Z,45.47
2022-12-03T23:39:30.890Z,49.50
2022-12-03T23:41:59.257Z,49.22
2022-12-03T23:44:28.032Z,44.45
2022-12-03T23:46:56.574Z,44.33
2022-12-03T23:49:25.123Z,49.08
2022-12-03T23:51:53.614Z,54.00
2022-12-03T23:54:22.174Z,46.10
2022-12-03T23:56:50.538Z,46.63
2022-12-03T23:59:18.909Z,51.45
